Time;durP1;ratioP1;P1;durP2;ratioP2;P2;SDS_P1;SDS_P2;PMS_P1;PMS_P2;Temp;Humidity;BMP_temperature;BMP_pressure;BME280_temperature;BME280_humidity;BME280_pressure;Samples;Min_cycle;Max_cycle;Signal;HPM_P1;HPM_P2
2022/10/04 00:01:50;;;;;;;13.23;4.82;;;;;;;8.61;83.26;99616.69;5027598;28;20118;-81
2022/10/04 00:04:18;;;;;;;5.30;3.22;;;;;;;8.54;83.41;99619.41;5011132;28;20397;-80
2022/10/04 00:06:58;;;;;;;9.85;4.00;;;;;;;8.51;84.50;99617.19;5024971;28;20431;-80
2022/10/04 00:09:30;;;;;;;8.07;3.83;;;;;;;8.30;84.07;99604.25;5026534;28;20504;-81
2022/10/04 00:11:57;;;;;;;4.78;3.65;;;;;;;8.22;84.61;99601.81;5026276;28;20517;-81
2022/10/04 00:14:31;;;;;;;5.90;3.25;;;;;;;7.53;85.72;99613.19;5026668;28;20102;-80
2022/10/04 00:16:58;;;;;;;11.73;3.70;;;;;;;8.15;84.43;99624.97;5029742;28;20385;-81
2022/10/04 00:19:46;;;;;;;7.93;3.70;;;;;;;8.22;84.29;99625.75;5015033;28;20095;-80
2022/10/04 00:22:33;;;;;;;10.80;3.78;;;;;;;8.17;84.61;99615.75;5053363;28;20528;-81
2022/10/04 00:25:19;;;;;;;5.63;3.42;;;;;;;8.25;83.30;99620.00;5042757;28;20078;-81
2022/10/04 00:28:27;;;;;;;4.87;3.10;;;;;;;8.30;83.56;99636.16;5045837;28;20036;-80
2022/10/04 00:31:17;;;;;;;11.00;3.67;;;;;;;8.15;83.79;99623.13;5046377;28;20301;-81
2022/10/04 00:33:50;;;;;;;5.32;3.58;;;;;;;8.12;84.66;99620.91;5034068;28;20052;-80
2022/10/04 00:36:24;;;;;;;14.13;4.45;;;;;;;8.22;83.91;99618.59;5032476;28;20027;-81
2022/10/04 00:39:08;;;;;;;12.98;3.88;;;;;;;8.22;85.21;99615.09;5047803;28;20108;-81
2022/10/04 00:41:57;;;;;;;5.25;3.53;;;;;;;8.07;84.48;99626.03;5046501;28;20033;-81
2022/10/04 00:44:50;;;;;;;9.63;3.30;;;;;;;7.89;85.83;99617.97;5049592;28;20017;-81
2022/10/04 00:47:33;;;;;;;10.73;3.95;;;;;;;8.13;84.23;99608.41;5044613;28;20028;-80
2022/10/04 00:50:28;;;;;;;11.00;4.22;;;;;;;8.15;84.68;99601.03;5051149;28;20053;-80
2022/10/04 00:52:59;;;;;;;11.43;3.63;;;;;;;8.11;83.93;99578.56;5033629;28;20535;-80
2022/10/04 00:55:41;;;;;;;6.07;3.60;;;;;;;8.08;84.56;99585.13;5014121;28;20033;-80
2022/10/04 00:58:17;;;;;;;6.40;4.00;;;;;;;8.07;84.71;99570.22;5025850;28;20037;-81
2022/10/04 01:00:43;;;;;;;;;;;;;;;8.27;84.22;99583.41;5024642;28;20049;-81
2022/10/04 01:03:19;;;;;;;8.43;4.13;;;;;;;8.09;84.38;99570.00;5029582;28;19963;-81
2022/10/04 01:05:56;;;;;;;5.45;3.45;;;;;;;8.18;84.71;99588.16;5045181;28;20481;-80
2022/10/04 01:08:31;;;;;;;9.55;3.67;;;;;;;8.06;84.12;99584.53;5046388;28;20044;-81
2022/10/04 01:11:02;;;;;;;12.75;4.28;;;;;;;8.25;84.40;99565.03;5038582;28;20633;-81
2022/10/04 01:13:36;;;;;;;8.43;3.78;;;;;;;8.09;84.30;99549.56;5045333;28;20075;-80
2022/10/04 01:16:23;;;;;;;6.10;3.78;;;;;;;8.32;84.37;99588.91;5028923;28;20029;-81
2022/10/04 01:18:49;;;;;;;8.05;3.70;;;;;;;8.21;84.87;99600.19;5029053;28;20388;-81
2022/10/04 01:21:17;;;;;;;6.93;3.80;;;;;;;8.27;85.33;99588.72;5028649;28;20036;-81
2022/10/04 01:23:56;;;;;;;10.68;3.38;;;;;;;8.36;84.32;99584.78;5024637;28;20025;-81
2022/10/04 01:26:33;;;;;;;11.25;4.78;;;;;;;8.27;84.69;99589.56;5024467;28;20043;-81
2022/10/04 01:29:05;;;;;;;6.55;4.03;;;;;;;7.69;85.66;99581.91;5045657;28;20043;-81
2022/10/04 01:31:33;;;;;;;5.65;4.05;;;;;;;7.93;85.51;99543.94;5024463;28;20028;-81
2022/10/04 01:34:00;;;;;;;11.15;4.18;;;;;;;8.03;85.30;99550.41;5026656;28;20036;-81
2022/10/04 01:36:29;;;;;;;12.02;5.18;;;;;;;8.13;84.96;99545.44;5028989;28;20029;-81
2022/10/04 01:38:55;;;;;;;10.32;4.93;;;;;;;8.20;85.93;99566.66;5014149;28;20033;-81
2022/10/04 01:41:43;;;;;;;15.38;4.43;;;;;;;7.96;85.83;99524.88;5011202;28;20033;-80
2022/10/04 01:44:19;;;;;;;10.25;4.35;;;;;;;7.99;86.78;99553.72;5049175;28;20032;-80
2022/10/04 01:46:45;;;;;;;11.43;4.70;;;;;;;8.13;86.09;99560.56;5047211;28;20399;-81
2022/10/04 01:49:16;;;;;;;10.40;4.97;;;;;;;8.03;85.76;99550.41;5025213;28;20951;-81
2022/10/04 01:51:50;;;;;;;11.27;4.50;;;;;;;7.85;86.39;99536.19;5022952;28;20037;-80
2022/10/04 01:54:28;;;;;;;9.23;4.25;;;;;;;8.16;86.18;99558.31;5020473;28;20029;-81
2022/10/04 01:57:16;;;;;;;6.15;4.60;;;;;;;8.11;85.76;99536.03;5023807;28;20588;-80
2022/10/04 01:59:48;;;;;;;7.28;4.45;;;;;;;8.02;85.63;99554.09;5041740;28;20036;-80
2022/10/04 02:02:24;;;;;;;10.75;4.53;;;;;;;7.68;87.15;99519.16;5024329;28;20033;-80
2022/10/04 02:04:54;;;;;;;12.10;4.70;;;;;;;8.12;86.27;99548.31;5050010;28;20496;-80
2022/10/04 02:07:21;;;;;;;9.10;4.55;;;;;;;8.24;85.39;99526.13;5032656;28;20036;-81
2022/10/04 02:09:53;;;;;;;8.73;4.25;;;;;;;8.25;85.39;99537.56;5048226;28;20032;-81
2022/10/04 02:12:19;;;;;;;8.30;3.95;;;;;;;8.27;84.69;99536.38;5028990;28;20527;-80
2022/10/04 02:14:54;;;;;;;9.43;4.32;;;;;;;8.21;85.18;99531.84;5028347;28;20036;-81
2022/10/04 02:17:24;;;;;;;9.10;4.50;;;;;;;8.39;84.58;99539.13;5005875;28;20033;-81
2022/10/04 02:19:51;;;;;;;7.55;4.07;;;;;;;8.17;84.11;99511.22;5027129;28;20650;-80
2022/10/04 02:22:17;;;;;;;8.35;3.85;;;;;;;8.20;84.79;99529.41;5032803;28;20392;-81
2022/10/04 02:24:46;;;;;;;10.55;4.10;;;;;;;8.12;85.45;99535.84;5051044;28;20116;-80
2022/10/04 02:27:12;;;;;;;6.47;4.05;;;;;;;8.07;85.01;99524.19;5047042;28;20031;-81
2022/10/04 02:29:37;;;;;;;6.28;3.92;;;;;;;8.09;85.48;99528.28;5053487;28;20070;-81
2022/10/04 02:34:50;;;;;;;7.40;5.55;;;;;;;7.88;86.02;99501.25;5045008;28;20128;-81
2022/10/04 02:37:17;;;;;;;8.40;4.85;;;;;;;7.91;86.24;99493.63;5027042;28;20560;-80
2022/10/04 02:40:12;;;;;;;8.77;4.78;;;;;;;7.76;87.22;99506.41;5025323;28;20124;-81
2022/10/04 02:42:48;;;;;;;12.75;5.13;;;;;;;7.70;87.20;99514.44;5043352;28;20082;-81
2022/10/04 02:45:27;;;;;;;9.15;5.63;;;;;;;6.97;89.70;99526.41;5042277;28;20032;-80
2022/10/04 02:47:59;;;;;;;12.55;5.25;;;;;;;7.61;88.59;99495.28;5041022;28;20041;-81
2022/10/04 02:50:43;;;;;;;12.30;5.40;;;;;;;7.80;87.17;99481.03;5043754;28;20033;-81
2022/10/04 02:53:20;;;;;;;14.40;5.80;;;;;;;8.02;87.15;99506.25;5046202;28;20039;-81
2022/10/04 02:55:46;;;;;;;11.30;5.28;;;;;;;7.61;87.16;99492.63;5023968;28;20079;-80
2022/10/04 02:58:16;;;;;;;10.85;5.40;;;;;;;7.86;86.63;99482.03;5026337;28;20029;-80
2022/10/04 03:00:54;;;;;;;7.93;5.13;;;;;;;8.02;85.77;99500.91;5028537;28;20033;-80
2022/10/04 03:03:31;;;;;;;11.73;4.75;;;;;;;8.07;85.97;99494.97;5042296;28;20033;-81
2022/10/04 03:05:59;;;;;;;6.05;4.97;;;;;;;7.96;85.91;99495.66;5023188;28;20033;-81
2022/10/04 03:08:28;;;;;;;6.88;4.43;;;;;;;7.62;86.61;99493.44;5043586;28;20025;-81
2022/10/04 03:10:55;;;;;;;7.35;4.90;;;;;;;7.76;87.43;99495.78;5025559;28;20040;-80
2022/10/04 03:13:21;;;;;;;13.20;5.28;;;;;;;7.86;86.47;99484.69;5043631;28;20476;-81
2022/10/04 03:15:49;;;;;;;8.57;4.50;;;;;;;7.98;85.95;99506.88;5022645;28;20152;-80
2022/10/04 03:18:16;;;;;;;10.27;5.15;;;;;;;8.11;85.22;99509.44;5025519;28;20061;-81
2022/10/04 03:20:41;;;;;;;10.40;4.50;;;;;;;8.15;84.84;99507.97;5042231;28;20418;-80
2022/10/04 03:23:09;;;;;;;12.45;4.50;;;;;;;8.12;85.00;99505.78;5024485;28;20033;-80
2022/10/04 03:25:51;;;;;;;9.10;4.75;;;;;;;8.00;86.04;99495.00;5027387;28;20485;-80
2022/10/04 03:28:18;;;;;;;11.05;6.53;;;;;;;7.89;86.42;99489.56;5045828;28;20024;-80
2022/10/04 03:30:45;;;;;;;15.10;4.57;;;;;;;7.94;86.16;99493.22;5007970;28;20549;-79
2022/10/04 03:33:20;;;;;;;9.27;4.50;;;;;;;7.97;85.83;99498.09;5047832;28;20032;-79
2022/10/04 03:35:50;;;;;;;8.52;4.13;;;;;;;7.96;85.98;99493.81;5024450;28;20067;-81
2022/10/04 03:38:17;;;;;;;9.23;4.90;;;;;;;7.95;85.28;99475.44;5047890;28;20079;-79
2022/10/04 03:40:50;;;;;;;8.82;5.07;;;;;;;7.83;86.68;99490.44;5010870;28;20072;-79
2022/10/04 03:43:16;;;;;;;5.03;4.20;;;;;;;7.44;87.98;99475.56;5043243;28;20129;-79
2022/10/04 03:45:42;;;;;;;8.60;4.45;;;;;;;8.01;86.44;99498.50;4993566;28;20127;-81
2022/10/04 03:48:13;;;;;;;6.35;4.68;;;;;;;8.00;85.50;99471.09;5041820;28;20040;-79
2022/10/04 03:50:45;;;;;;;11.15;4.95;;;;;;;7.93;86.45;99467.66;5025873;28;20496;-81
2022/10/04 03:53:23;;;;;;;9.82;5.47;;;;;;;7.92;86.51;99487.31;5036384;28;20477;-82
2022/10/04 03:55:48;;;;;;;8.85;4.93;;;;;;;7.25;88.28;99484.44;5039358;28;20025;-82
2022/10/04 03:58:16;;;;;;;15.38;5.68;;;;;;;7.66;87.49;99486.66;5025725;28;20052;-79
2022/10/04 04:00:59;;;;;;;8.45;4.88;;;;;;;7.71;87.52;99461.06;5038573;28;20600;-81
2022/10/04 04:03:28;;;;;;;11.25;5.85;;;;;;;7.94;86.63;99476.44;5020610;28;20120;-77
2022/10/04 04:06:01;;;;;;;8.77;5.10;;;;;;;8.03;85.84;99472.50;5039158;28;20052;-80
2022/10/04 04:08:34;;;;;;;12.68;5.28;;;;;;;7.97;87.08;99473.38;5039296;28;20035;-79
2022/10/04 04:11:03;;;;;;;8.38;4.35;;;;;;;7.98;86.73;99473.16;5040631;28;20036;-79
2022/10/04 04:13:48;;;;;;;7.95;4.18;;;;;;;7.96;86.25;99482.38;5024572;28;20039;-79
2022/10/04 04:16:13;;;;;;;7.03;4.70;;;;;;;7.92;86.33;99468.69;5039759;28;20033;-79
2022/10/04 04:18:42;;;;;;;6.70;4.47;;;;;;;8.02;86.47;99489.47;5021888;28;20041;-79
2022/10/04 04:21:10;;;;;;;7.78;4.60;;;;;;;7.97;86.59;99494.63;5026255;28;20033;-79
2022/10/04 04:23:47;;;;;;;9.07;4.38;;;;;;;7.85;87.16;99475.09;5043072;28;20037;-79
2022/10/04 04:26:38;;;;;;;7.75;4.75;;;;;;;7.96;86.77;99463.75;5029586;28;20024;-79
2022/10/04 04:29:10;;;;;;;9.80;4.80;;;;;;;8.01;87.34;99478.03;5025179;28;20074;-81
2022/10/04 04:31:41;;;;;;;13.32;5.88;;;;;;;7.92;87.18;99483.81;5038042;28;20048;-81
2022/10/04 04:34:24;;;;;;;9.80;5.43;;;;;;;7.43;88.60;99474.72;5026885;28;20163;-80
2022/10/04 04:36:51;;;;;;;8.45;5.10;;;;;;;7.82;88.36;99476.31;5028767;28;20135;-80
2022/10/04 04:39:33;;;;;;;11.02;5.07;;;;;;;7.99;87.28;99463.34;5034290;28;20020;-80
2022/10/04 04:42:11;;;;;;;11.32;5.78;;;;;;;8.03;87.14;99454.72;5036441;28;20551;-80
2022/10/04 04:44:48;;;;;;;9.27;4.70;;;;;;;8.20;86.55;99447.81;5027993;28;20028;-80
2022/10/04 04:47:39;;;;;;;11.68;5.10;;;;;;;8.40;86.36;99466.28;5046804;28;20048;-80
2022/10/04 04:50:22;;;;;;;5.97;4.82;;;;;;;8.24;86.72;99443.69;5054567;28;20443;-80
2022/10/04 04:52:54;;;;;;;9.85;5.00;;;;;;;8.37;85.55;99442.75;5031162;28;20029;-80
2022/10/04 04:55:26;;;;;;;8.10;4.88;;;;;;;8.57;85.58;99462.00;5022265;28;20039;-80
2022/10/04 04:57:55;;;;;;;8.32;4.85;;;;;;;8.39;85.08;99427.41;5032891;28;20032;-80
2022/10/04 05:00:27;;;;;;;7.72;4.57;;;;;;;8.47;84.94;99434.28;5046344;28;20025;-80
2022/10/04 05:02:55;;;;;;;8.43;4.32;;;;;;;8.63;85.09;99457.63;5031293;28;20029;-80
2022/10/04 05:05:26;;;;;;;7.63;4.45;;;;;;;8.60;85.03;99440.28;5029414;28;20045;-80
2022/10/04 05:08:17;;;;;;;8.02;4.78;;;;;;;8.62;85.08;99446.22;5034333;28;20044;-80
2022/10/04 05:11:10;;;;;;;12.27;4.40;;;;;;;8.47;85.14;99421.00;5032233;28;20029;-80
2022/10/04 05:13:55;;;;;;;7.97;4.25;;;;;;;8.50;85.76;99432.00;5038349;28;20087;-80
2022/10/04 05:16:40;;;;;;;7.53;4.55;;;;;;;8.65;85.28;99450.28;5052936;28;20031;-80
2022/10/04 05:19:20;;;;;;;8.15;5.00;;;;;;;8.71;84.65;99447.53;5056873;28;20029;-80
2022/10/04 05:21:47;;;;;;;5.45;4.05;;;;;;;8.78;84.80;99448.25;5028697;28;20029;-81
2022/10/04 05:24:21;;;;;;;7.57;4.30;;;;;;;8.78;84.64;99450.13;5049802;28;20377;-81
2022/10/04 05:26:53;;;;;;;6.28;4.45;;;;;;;8.78;84.80;99442.94;5027025;28;20033;-81
2022/10/04 05:29:22;;;;;;;8.65;4.90;;;;;;;8.51;86.09;99452.25;5024000;28;20037;-81
2022/10/04 05:31:57;;;;;;;9.10;4.68;;;;;;;8.59;85.67;99469.75;5027621;28;20055;-80
2022/10/04 05:34:26;;;;;;;13.18;5.68;;;;;;;8.82;84.97;99454.75;5040026;28;20696;-79
2022/10/04 05:37:25;;;;;;;8.48;4.57;;;;;;;8.82;84.01;99451.31;5024859;28;20040;-79
2022/10/04 05:40:13;;;;;;;8.25;4.40;;;;;;;8.93;83.77;99466.53;4974610;28;20369;-79
2022/10/04 05:42:44;;;;;;;7.20;4.45;;;;;;;8.97;84.13;99467.72;5014480;28;20977;-79
2022/10/04 05:45:15;;;;;;;7.18;5.20;;;;;;;8.81;84.69;99463.81;5052083;28;20025;-79
2022/10/04 05:47:41;;;;;;;7.68;5.45;;;;;;;8.81;84.57;99445.16;5031050;28;20469;-79
2022/10/04 05:50:22;;;;;;;7.88;4.85;;;;;;;8.78;84.16;99453.59;5055005;28;20024;-79
2022/10/04 05:52:50;;;;;;;9.27;5.93;;;;;;;8.86;84.78;99463.13;5015487;28;20113;-79
2022/10/04 05:55:26;;;;;;;11.20;5.68;;;;;;;8.97;84.32;99471.19;5043099;28;20028;-79
2022/10/04 05:58:06;;;;;;;;;;;;;;;9.01;83.79;99469.72;5024065;28;20461;-78
2022/10/04 06:01:07;;;;;;;13.00;4.65;;;;;;;9.01;83.96;99476.88;5051770;28;19925;-78
2022/10/04 06:03:39;;;;;;;8.88;4.55;;;;;;;8.85;84.44;99461.50;5040145;28;20104;-79
2022/10/04 06:06:16;;;;;;;7.38;5.15;;;;;;;8.90;84.30;99467.78;5046335;28;20021;-79
2022/10/04 06:09:15;;;;;;;7.88;4.90;;;;;;;9.06;84.47;99487.69;5054484;28;20075;-79
2022/10/04 06:12:07;;;;;;;7.25;4.95;;;;;;;8.97;84.49;99486.34;5053553;28;20021;-78
2022/10/04 06:15:07;;;;;;;10.32;6.07;;;;;;;9.00;84.30;99489.38;5048924;28;20025;-78
2022/10/04 06:18:11;;;;;;;8.00;5.00;;;;;;;9.02;84.15;99492.63;5056805;28;20033;-79
2022/10/04 06:20:45;;;;;;;8.73;5.68;;;;;;;9.04;84.94;99493.22;5056618;28;20036;-78
2022/10/04 06:23:15;;;;;;;9.52;5.40;;;;;;;9.07;84.30;99500.78;5048404;28;20029;-78
2022/10/04 06:26:04;;;;;;;11.52;5.15;;;;;;;9.05;83.96;99502.03;5034709;28;20063;-78
2022/10/04 06:28:55;;;;;;;7.47;4.68;;;;;;;9.04;84.37;99487.88;5026046;28;20095;-79
2022/10/04 06:31:43;;;;;;;7.68;4.97;;;;;;;9.12;83.69;99504.63;5046077;28;20539;-79
2022/10/04 06:34:20;;;;;;;10.88;6.47;;;;;;;9.19;84.88;99513.34;5061764;28;20021;-79
2022/10/04 06:37:04;;;;;;;9.27;4.95;;;;;;;9.26;84.45;99500.78;5043492;28;20403;-79
2022/10/04 06:39:42;;;;;;;7.20;4.50;;;;;;;9.16;84.84;99503.13;5056095;28;20062;-79
2022/10/04 06:42:15;;;;;;;8.90;5.55;;;;;;;9.02;84.12;99483.84;5037391;28;20043;-79
2022/10/04 06:44:52;;;;;;;5.95;4.68;;;;;;;9.26;83.80;99492.78;5046912;28;20028;-79
2022/10/04 06:47:20;;;;;;;10.05;5.50;;;;;;;9.15;83.83;99485.53;5047163;28;20033;-79
2022/10/04 06:49:57;;;;;;;6.68;5.50;;;;;;;9.23;84.42;99494.03;5046930;28;20020;-79
2022/10/04 06:52:25;;;;;;;9.68;5.38;;;;;;;9.12;84.28;99483.31;5049826;28;20032;-79
2022/10/04 06:55:18;;;;;;;7.43;5.43;;;;;;;9.15;84.45;99497.00;5033024;28;20041;-79
2022/10/04 06:57:49;;;;;;;7.90;5.60;;;;;;;9.10;84.19;99488.03;5030363;28;20476;-79
2022/10/04 07:00:25;;;;;;;9.85;5.95;;;;;;;9.04;84.70;99493.22;5045789;28;20033;-79
2022/10/04 07:03:11;;;;;;;9.27;5.53;;;;;;;9.10;84.78;99498.69;5023363;28;20036;-78
2022/10/04 07:05:57;;;;;;;;;;;;;;;9.14;84.92;99498.03;5023541;28;20396;-79
2022/10/04 07:08:32;;;;;;;10.60;6.22;;;;;;;9.18;85.17;99501.06;5022095;28;20368;-79
2022/10/04 07:11:21;;;;;;;10.00;5.70;;;;;;;9.13;84.58;99509.72;5040838;28;20082;-79
2022/10/04 07:13:58;;;;;;;11.43;5.95;;;;;;;9.21;84.60;99506.75;5020311;28;20029;-78
2022/10/04 07:16:48;;;;;;;14.68;5.85;;;;;;;9.14;86.01;99510.53;5036091;28;20059;-79
2022/10/04 07:19:14;;;;;;;12.93;6.55;;;;;;;9.22;85.70;99512.91;5029819;28;20025;-79
2022/10/04 07:21:59;;;;;;;10.10;5.50;;;;;;;9.09;86.32;99503.19;5038894;28;20029;-79
2022/10/04 07:24:40;;;;;;;9.70;6.75;;;;;;;8.61;90.36;99494.31;5038165;28;20033;-79
2022/10/04 07:27:12;;;;;;;15.38;7.95;;;;;;;8.44;92.50;99509.19;5022353;28;20021;-79
2022/10/04 07:29:40;;;;;;;13.02;5.53;;;;;;;8.91;87.91;99509.34;5036955;28;20021;-79
2022/10/04 07:32:22;;;;;;;9.82;6.20;;;;;;;8.73;89.43;99492.56;5044145;28;20040;-79
2022/10/04 07:35:09;;;;;;;13.82;8.00;;;;;;;8.71;90.54;99500.78;5027638;28;20028;-78
2022/10/04 07:37:52;;;;;;;14.77;8.75;;;;;;;8.49;91.98;99496.06;5032777;28;20078;-78
2022/10/04 07:40:21;;;;;;;16.70;8.25;;;;;;;8.62;93.21;99507.41;5040537;28;20044;-79
2022/10/04 07:42:53;;;;;;;12.25;7.40;;;;;;;8.51;93.02;99492.16;5018454;28;20033;-79
2022/10/04 07:45:24;;;;;;;11.25;7.13;;;;;;;9.35;86.92;99492.22;5038594;28;20119;-78
2022/10/04 07:47:50;;;;;;;11.07;6.72;;;;;;;9.29;87.41;99502.97;5004242;28;20047;-79
2022/10/04 07:50:22;;;;;;;6.82;5.88;;;;;;;9.51;85.23;99480.97;5038062;28;20025;-79
2022/10/04 07:53:14;;;;;;;12.95;6.75;;;;;;;9.44;86.63;99498.88;5037637;28;20119;-79
2022/10/04 07:55:51;;;;;;;10.25;5.70;;;;;;;9.53;85.64;99478.06;5022299;28;20029;-79
2022/10/04 07:58:32;;;;;;;9.38;5.72;;;;;;;9.64;86.49;99501.28;5034442;28;20042;-78
2022/10/04 08:01:09;;;;;;;9.88;5.60;;;;;;;9.40;87.07;99471.06;5035477;28;20044;-79
2022/10/04 08:04:00;;;;;;;12.38;7.50;;;;;;;9.64;86.65;99493.28;5037944;28;20080;-79
2022/10/04 08:06:38;;;;;;;11.25;6.20;;;;;;;9.61;87.75;99496.41;5025352;28;20086;-79
2022/10/04 08:09:21;;;;;;;10.88;7.65;;;;;;;9.56;88.73;99489.09;5015441;28;20040;-79
2022/10/04 08:11:57;;;;;;;8.60;5.68;;;;;;;9.81;87.27;99494.25;5023433;28;20037;-79
2022/10/04 08:14:51;;;;;;;8.60;6.03;;;;;;;9.85;86.58;99487.44;5025331;28;20036;-78
2022/10/04 08:17:52;;;;;;;12.63;7.40;;;;;;;9.41;88.36;99454.06;5041805;28;20028;-79
2022/10/04 08:20:41;;;;;;;8.80;5.93;;;;;;;9.81;87.16;99487.09;5025206;28;20154;-78
2022/10/04 08:23:43;;;;;;;13.23;7.60;;;;;;;9.77;88.58;99487.75;5001218;28;20044;-78
2022/10/04 08:26:30;;;;;;;11.15;7.00;;;;;;;9.80;90.76;99496.13;5044818;28;20017;-78
2022/10/04 08:32:28;;;;;;;9.30;6.45;;;;;;;9.97;89.74;99487.47;5041929;28;20051;-78
2022/10/04 08:35:10;;;;;;;10.60;6.32;;;;;;;10.15;89.04;99490.91;5022213;28;20095;-79
2022/10/04 08:38:11;;;;;;;9.43;6.28;;;;;;;10.13;90.14;99487.66;5038829;28;20017;-78
2022/10/04 08:40:52;;;;;;;8.18;5.88;;;;;;;10.32;86.67;99491.84;5043186;28;20021;-80
2022/10/04 08:43:24;;;;;;;9.20;5.22;;;;;;;10.36;86.75;99490.34;5022571;28;20033;-79
2022/10/04 08:46:17;;;;;;;12.68;6.03;;;;;;;10.38;87.02;99487.44;5022903;28;20527;-79
2022/10/04 08:49:05;;;;;;;8.68;5.10;;;;;;;10.48;87.13;99490.34;5040105;28;20112;-79
2022/10/04 08:51:52;;;;;;;8.60;4.97;;;;;;;10.51;87.19;99496.03;5027669;28;20120;-79
2022/10/04 08:54:26;;;;;;;7.70;5.45;;;;;;;10.47;87.17;99486.06;5038896;28;20047;-79
2022/10/04 08:57:11;;;;;;;7.50;4.75;;;;;;;10.57;86.84;99495.09;5022416;28;22278;-79
2022/10/04 09:00:03;;;;;;;7.22;4.63;;;;;;;10.64;86.60;99491.53;5039073;28;20100;-79
2022/10/04 09:03:00;;;;;;;12.50;6.45;;;;;;;10.52;88.18;99492.34;5023177;28;20036;-78
2022/10/04 09:05:28;;;;;;;13.75;7.43;;;;;;;10.46;88.66;99487.91;5023567;28;20432;-79
2022/10/04 09:08:21;;;;;;;9.00;6.03;;;;;;;10.50;88.10;99489.09;5039894;28;20029;-78
2022/10/04 09:11:05;;;;;;;9.10;5.38;;;;;;;10.69;87.37;99486.28;5043525;28;20028;-78
2022/10/04 09:13:33;;;;;;;12.13;6.97;;;;;;;10.72;88.62;99491.97;5027550;28;20047;-79
2022/10/04 09:16:15;;;;;;;19.95;6.82;;;;;;;10.75;90.49;99488.00;5022545;28;20037;-79
2022/10/04 09:19:19;;;;;;;13.68;6.43;;;;;;;10.82;88.88;99483.34;5044109;28;20032;-78
2022/10/04 09:21:55;;;;;;;15.82;5.47;;;;;;;10.86;87.64;99482.66;5041654;28;20127;-78
2022/10/04 09:24:39;;;;;;;;;;;;;;;10.91;87.41;99488.13;5042581;28;20495;-78
2022/10/04 09:27:13;;;;;;;12.70;6.82;;;;;;;10.85;88.51;99483.72;5018098;28;19921;-79
2022/10/04 09:30:00;;;;;;;11.50;6.32;;;;;;;10.92;87.83;99488.94;5035964;28;20048;-79
2022/10/04 09:32:31;;;;;;;;;;;;;;;11.00;87.62;99483.22;5024200;28;20041;-78
2022/10/04 09:35:18;;;;;;;14.07;6.13;;;;;;;10.94;87.17;99465.47;5039709;28;20414;-78
2022/10/04 09:38:09;;;;;;;8.50;6.00;;;;;;;11.00;88.33;99476.03;5021973;28;20056;-78
2022/10/04 09:40:49;;;;;;;13.75;5.53;;;;;;;11.12;87.80;99481.31;5028010;28;20039;-78
2022/10/04 09:43:45;;;;;;;12.23;5.93;;;;;;;11.16;87.61;99485.97;5035163;28;20029;-78
2022/10/04 09:46:29;;;;;;;9.65;5.50;;;;;;;11.20;87.29;99483.66;5019834;28;20385;-78
2022/10/04 09:49:06;;;;;;;12.43;5.95;;;;;;;11.38;86.24;99483.44;5019449;28;20111;-79
2022/10/04 09:51:55;;;;;;;14.05;5.90;;;;;;;11.47;85.95;99466.00;5040595;28;20031;-79
2022/10/04 09:54:55;;;;;;;10.35;6.18;;;;;;;11.49;85.57;99471.91;5040224;28;20120;-78
2022/10/04 09:57:55;;;;;;;11.68;5.93;;;;;;;11.60;85.47;99464.91;5018212;28;20064;-79
2022/10/04 10:00:23;;;;;;;8.88;6.82;;;;;;;11.67;86.00;99457.56;5018449;28;20056;-79
2022/10/04 10:03:32;;;;;;;15.20;6.40;;;;;;;11.47;86.21;99443.78;5036591;28;20768;-78
2022/10/04 10:06:16;;;;;;;11.80;6.10;;;;;;;11.64;85.38;99455.34;5019007;28;20028;-79
2022/10/04 10:08:59;;;;;;;17.00;6.05;;;;;;;11.75;84.53;99466.00;5034598;28;20033;-79
2022/10/04 10:14:46;;;;;;;13.32;6.35;;;;;;;11.97;84.72;99461.56;5037236;28;20031;-78
2022/10/04 10:17:48;;;;;;;17.15;6.70;;;;;;;11.95;83.82;99455.66;5037472;28;20032;-78
2022/10/04 10:20:48;;;;;;;14.07;7.05;;;;;;;12.08;82.79;99456.41;5040090;28;20392;-80
2022/10/04 10:23:31;;;;;;;14.20;5.75;;;;;;;12.00;82.34;99444.22;5036346;28;20548;-80
2022/10/04 10:26:11;;;;;;;9.77;5.18;;;;;;;12.11;81.76;99461.25;5021135;28;20048;-79
2022/10/04 10:28:39;;;;;;;16.10;5.57;;;;;;;12.14;81.54;99458.09;5017310;28;20119;-78
2022/10/04 10:31:28;;;;;;;12.45;5.90;;;;;;;12.11;81.83;99459.41;5034190;28;20032;-80
2022/10/04 10:34:44;;;;;;;20.08;6.20;;;;;;;12.24;80.95;99453.72;5035087;28;20091;-79
2022/10/04 10:37:40;;;;;;;11.65;5.47;;;;;;;12.06;80.69;99448.59;4974778;28;20128;-78
2022/10/04 10:40:33;;;;;;;11.40;4.80;;;;;;;12.18;79.18;99462.72;4999622;28;20029;-78
2022/10/04 10:43:33;;;;;;;14.80;5.72;;;;;;;12.36;78.65;99457.09;5019404;28;20040;-78
2022/10/04 10:46:27;;;;;;;6.30;5.00;;;;;;;12.25;78.36;99451.88;5012639;28;20052;-78
2022/10/04 10:49:09;;;;;;;15.57;5.03;;;;;;;12.14;78.59;99432.16;5036649;28;20033;-78
2022/10/04 10:51:56;;;;;;;14.40;5.05;;;;;;;12.31;78.66;99456.22;5037700;28;20389;-78
2022/10/04 10:54:56;;;;;;;9.38;4.68;;;;;;;12.22;78.48;99409.53;5037576;28;20159;-78
2022/10/04 10:57:36;;;;;;;7.82;4.30;;;;;;;12.53;78.63;99446.41;5037671;28;20033;-78
2022/10/04 11:00:31;;;;;;;10.77;4.63;;;;;;;12.64;78.61;99453.50;5037557;28;20033;-78
2022/10/04 11:03:20;;;;;;;6.63;4.78;;;;;;;12.72;78.29;99453.09;4993976;28;20139;-78
2022/10/04 11:05:56;;;;;;;6.35;4.93;;;;;;;12.80;78.16;99450.78;5020389;28;20033;-78
2022/10/04 11:08:40;;;;;;;9.07;5.07;;;;;;;12.80;78.46;99445.44;5032649;28;20036;-78
2022/10/04 11:11:47;;;;;;;8.30;4.90;;;;;;;12.85;77.59;99431.28;5040619;28;20067;-78
2022/10/04 11:14:37;;;;;;;12.02;5.65;;;;;;;13.00;77.50;99428.81;5017742;28;20122;-78
2022/10/04 11:17:32;;;;;;;10.98;4.53;;;;;;;12.96;77.85;99429.53;5037699;28;20033;-78
2022/10/04 11:20:41;;;;;;;12.35;5.28;;;;;;;13.07;77.53;99429.47;5046920;28;20029;-78
2022/10/04 11:23:26;;;;;;;10.50;4.95;;;;;;;13.16;77.17;99432.50;5016208;28;20496;-78
2022/10/04 11:26:01;;;;;;;12.02;5.55;;;;;;;13.18;76.92;99411.63;5036591;28;20055;-78
2022/10/04 11:28:46;;;;;;;9.55;5.10;;;;;;;13.28;76.33;99420.56;5035658;28;20524;-78
2022/10/04 11:31:56;;;;;;;11.25;5.60;;;;;;;13.25;76.39;99410.38;5034067;28;21722;-78
2022/10/04 11:34:46;;;;;;;12.40;4.82;;;;;;;13.36;76.92;99405.94;5036730;28;20081;-78
2022/10/04 11:37:30;;;;;;;9.30;4.80;;;;;;;13.39;75.65;99406.22;5033646;28;20033;-78
2022/10/04 11:40:33;;;;;;;8.20;5.20;;;;;;;13.70;74.90;99401.97;5024441;28;20121;-78
2022/10/04 11:43:20;;;;;;;7.93;4.90;;;;;;;13.62;75.38;99391.69;5037733;28;20148;-78
2022/10/04 11:46:15;;;;;;;8.25;4.88;;;;;;;13.65;75.98;99398.44;5023990;28;20025;-78
2022/10/04 11:49:19;;;;;;;15.32;4.50;;;;;;;14.00;75.77;99386.09;5022233;28;20554;-79
2022/10/04 11:52:12;;;;;;;14.18;5.03;;;;;;;14.02;75.61;99383.97;5023851;28;20433;-78
2022/10/04 11:55:11;;;;;;;9.80;4.22;;;;;;;14.34;74.23;99375.09;5022458;28;20545;-79
2022/10/04 11:57:51;;;;;;;10.77;4.55;;;;;;;14.14;74.30;99367.69;5021459;28;20181;-78
2022/10/04 12:00:19;;;;;;;11.38;4.47;;;;;;;14.20;74.39;99364.78;5021104;28;20033;-78
2022/10/04 12:03:18;;;;;;;9.65;4.72;;;;;;;14.57;73.62;99361.25;5040786;28;20051;-79
2022/10/04 12:06:21;;;;;;;11.38;5.38;;;;;;;14.71;72.22;99359.69;5039717;28;20032;-79
2022/10/04 12:08:53;;;;;;;9.23;4.43;;;;;;;14.07;72.53;99342.94;5038387;28;20033;-79
2022/10/04 12:14:44;;;;;;;7.13;4.00;;;;;;;14.94;71.89;99359.22;5040752;28;20490;-78
2022/10/04 12:17:10;;;;;;;7.25;4.32;;;;;;;15.03;71.51;99358.47;5022514;28;20029;-78
2022/10/04 12:20:13;;;;;;;10.45;4.20;;;;;;;14.85;72.08;99355.47;5038099;28;20415;-78
2022/10/04 12:23:03;;;;;;;8.82;3.97;;;;;;;15.24;72.20;99361.22;5023725;28;20028;-79
2022/10/04 12:26:11;;;;;;;10.05;4.68;;;;;;;15.36;70.42;99356.38;5039776;28;20045;-79
2022/10/04 12:28:40;;;;;;;9.57;4.05;;;;;;;15.52;69.87;99355.38;5021634;28;20040;-78
2022/10/04 12:31:05;;;;;;;6.10;3.55;;;;;;;15.69;69.19;99345.97;5041982;28;20037;-78
2022/10/04 12:33:56;;;;;;;10.32;4.10;;;;;;;15.27;69.36;99317.63;5045486;28;20633;-78
2022/10/04 12:36:27;;;;;;;12.88;3.60;;;;;;;15.78;68.06;99346.22;5039751;28;20432;-78
2022/10/04 12:39:04;;;;;;;6.50;3.35;;;;;;;15.77;67.97;99331.94;5043530;28;20061;-78
2022/10/04 12:41:42;;;;;;;9.68;3.88;;;;;;;16.04;67.49;99331.66;5044827;28;20040;-78
2022/10/04 12:44:17;;;;;;;7.38;4.05;;;;;;;16.07;67.63;99327.63;5040058;28;20032;-79
2022/10/04 12:47:19;;;;;;;5.15;3.70;;;;;;;16.24;66.30;99320.84;5036895;28;20078;-78
2022/10/04 12:50:30;;;;;;;9.57;4.88;;;;;;;16.33;66.22;99324.59;5017898;28;20033;-78